Hanceville, Alabama
Current Conditions -  °F | °C
As of 3:55 PM on Saturday 25 Oct 2014 (Local Time) from KCMD Reporting Station
Clear Clear  
Wind Chill: 77°   Ceiling: Unl
Heat Index: 79°   Visibility: 10mi
Dew Point: 59°   Wind: 3mph
Humidity: 53%   Direction: 250°WSW
Pressure: 30.06"   Gusts: NA
Location:  34.06°N, 86.77°W
Report Text: KCMD 252055Z AUTO 25003KT 10SM CLR 25/15 A3006 RMK AO2 T02490148
Loading
Personal Weather Stations






























Interactive Weather Map
Tropical Storm Tracking
New forecast layout! Learn more

10-Day Weather Forecast

Advertisements
Track Severe Weather on mobile